Bentley, Michigan
Current Conditions -  °F | °C
As of 7:54 PM on Saturday 22 Nov 2014 (Local Time) from KIKW Reporting Station
Haze Haze  
Wind Chill: 38°   Ceiling: 300
Heat Index: 42°   Visibility: 2.5mi
Dew Point: 42°   Wind: 6mph
Humidity: 99%   Direction: 210°SSW
Pressure: 29.86"   Gusts: NA
Location:  43.95°N, 84.13°W
Report Text: KIKW 230054Z AUTO 21005KT 2 1/2SM BR OVC003 06/05 A2986 RMK AO2 T00550053
Loading
Personal Weather Stations






























Interactive Weather Map New forecast layout! Learn more

10-Day Weather Forecast

Advertisements
Track Severe Weather on mobile